Time;durP1;ratioP1;P1;durP2;ratioP2;P2;SDS_P1;SDS_P2;PMS_P1;PMS_P2;Temp;Humidity;BMP_temperature;BMP_pressure;BME280_temperature;BME280_humidity;BME280_pressure;Samples;Min_cycle;Max_cycle;Signal;HPM_P1;HPM_P2
2022/08/10 00:00:28;;;;;;;3.58;2.35;;;;;;;20.22;56.55;100855.34;5074977;28;20050;-63
2022/08/10 00:03:15;;;;;;;3.75;2.35;;;;;;;20.22;56.44;100852.72;5074413;28;20459;-61
2022/08/10 00:06:01;;;;;;;4.82;2.75;;;;;;;20.22;56.22;100849.19;5074682;28;20463;-63
2022/08/10 00:08:46;;;;;;;3.95;2.53;;;;;;;20.21;56.32;100847.44;5073664;28;20047;-62
2022/08/10 00:11:32;;;;;;;5.25;2.95;;;;;;;20.21;56.33;100850.06;5074593;28;20109;-61
2022/08/10 00:14:24;;;;;;;3.30;2.33;;;;;;;20.20;56.52;100849.22;5074484;28;20051;-61
2022/08/10 00:17:13;;;;;;;4.22;2.00;;;;;;;20.20;56.55;100849.22;5073679;28;20059;-61
2022/08/10 00:20:06;;;;;;;6.90;2.78;;;;;;;20.19;56.44;100836.06;5073673;28;20541;-62
2022/08/10 00:22:50;;;;;;;3.95;2.13;;;;;;;20.18;56.30;100832.56;5074288;28;20472;-61
2022/08/10 00:25:37;;;;;;;4.65;2.47;;;;;;;20.19;56.60;100822.91;5073532;28;20079;-63
2022/08/10 00:28:23;;;;;;;4.97;2.42;;;;;;;20.16;56.52;100821.19;5073418;28;20051;-62
2022/08/10 00:31:13;;;;;;;2.88;2.33;;;;;;;20.16;56.50;100818.56;5073476;28;20066;-62
2022/08/10 00:34:03;;;;;;;6.65;2.72;;;;;;;20.15;56.62;100814.19;5073299;28;20518;-62
2022/08/10 00:36:50;;;;;;;3.70;2.10;;;;;;;20.14;56.54;100812.44;5073173;28;20093;-63
2022/08/10 00:39:42;;;;;;;3.03;2.25;;;;;;;20.12;56.45;100814.22;5073365;28;20526;-61
2022/08/10 00:42:32;;;;;;;5.15;2.83;;;;;;;20.12;56.50;100814.22;5073116;28;20087;-63
2022/08/10 00:45:24;;;;;;;3.75;2.33;;;;;;;20.11;56.66;100806.34;5072874;28;20047;-63
2022/08/10 00:48:16;;;;;;;3.40;2.08;;;;;;;20.11;56.73;100814.22;5074113;28;20174;-61
2022/08/10 00:51:06;;;;;;;4.72;2.38;;;;;;;20.10;56.82;100805.44;5073449;28;20067;-62
2022/08/10 00:53:53;;;;;;;3.95;2.30;;;;;;;20.10;56.75;100810.72;5073977;28;20051;-62
2022/08/10 00:56:37;;;;;;;3.88;2.60;;;;;;;20.08;56.61;100810.75;5073161;28;20093;-62
2022/08/10 00:59:24;;;;;;;6.80;2.75;;;;;;;20.08;56.68;100818.63;5073532;28;20090;-62
2022/08/10 01:02:10;;;;;;;4.47;2.58;;;;;;;20.08;56.65;100816.00;5072410;28;20118;-62
2022/08/10 01:04:59;;;;;;;7.88;2.55;;;;;;;20.08;56.83;100812.53;5073032;28;20051;-62
2022/08/10 01:07:55;;;;;;;4.05;2.13;;;;;;;20.08;57.05;100813.38;5074095;28;20431;-62
2022/08/10 01:10:54;;;;;;;4.10;2.20;;;;;;;20.09;56.80;100814.22;5073621;28;20071;-62
2022/08/10 01:13:46;;;;;;;4.95;2.20;;;;;;;20.10;57.08;100813.34;5072814;28;20046;-62
2022/08/10 01:16:46;;;;;;;4.10;2.15;;;;;;;20.10;56.98;100812.50;5072805;28;20050;-62
2022/08/10 01:19:56;;;;;;;4.95;2.47;;;;;;;20.08;57.03;100813.38;5072748;28;20051;-62
2022/08/10 01:22:58;;;;;;;5.68;2.20;;;;;;;20.07;56.99;100818.66;5072672;28;20071;-62
2022/08/10 01:25:45;;;;;;;4.10;2.03;;;;;;;20.06;56.95;100823.03;5072757;28;20568;-62
2022/08/10 01:28:47;;;;;;;4.30;2.60;;;;;;;20.06;57.07;100822.19;5073396;28;20464;-63
2022/08/10 01:31:40;;;;;;;2.90;2.00;;;;;;;20.05;57.25;100810.78;5072906;28;20043;-62
2022/08/10 01:34:38;;;;;;;3.38;2.15;;;;;;;20.05;57.14;100810.78;5072654;28;20098;-62
2022/08/10 01:37:28;;;;;;;4.90;2.33;;;;;;;20.06;57.30;100811.66;5073005;28;20479;-61
2022/08/10 01:40:24;;;;;;;4.60;2.33;;;;;;;20.05;57.60;100804.66;5076070;28;20051;-61
2022/08/10 01:43:18;;;;;;;2.67;2.10;;;;;;;20.05;57.25;100816.03;5077481;28;20117;-61
2022/08/10 01:46:14;;;;;;;3.30;1.80;;;;;;;20.05;57.54;100809.91;5077514;28;20047;-61
2022/08/10 01:49:06;;;;;;;4.82;2.03;;;;;;;20.05;57.54;100810.78;5077295;28;20050;-61
2022/08/10 01:51:59;;;;;;;2.83;2.50;;;;;;;20.05;57.52;100808.13;5076310;28;20055;-60
2022/08/10 01:54:55;;;;;;;3.65;2.20;;;;;;;20.05;57.51;100812.53;5076489;28;20043;-63
2022/08/10 01:57:48;;;;;;;2.78;2.17;;;;;;;20.04;57.74;100806.41;5077324;28;20036;-61
2022/08/10 02:00:36;;;;;;;3.38;2.10;;;;;;;20.05;57.64;100805.50;5077209;28;20086;-61
2022/08/10 02:03:22;;;;;;;3.55;2.03;;;;;;;20.06;57.72;100801.13;5075958;28;20098;-62
2022/08/10 02:06:10;;;;;;;3.13;2.33;;;;;;;20.05;57.70;100799.41;5076892;28;20098;-63
2022/08/10 02:08:58;;;;;;;4.20;2.00;;;;;;;20.04;57.85;100802.91;5077158;28;20053;-61
2022/08/10 02:11:45;;;;;;;5.43;2.53;;;;;;;20.02;57.60;100804.69;5075962;28;20132;-61
2022/08/10 02:14:37;;;;;;;3.08;2.03;;;;;;;20.00;57.67;100796.81;5075960;28;20515;-61
2022/08/10 02:17:25;;;;;;;3.35;2.28;;;;;;;19.98;57.63;100798.59;5076837;28;20040;-61
2022/08/10 02:20:21;;;;;;;3.33;2.10;;;;;;;19.95;57.38;100806.50;5075874;28;20094;-61
2022/08/10 02:23:22;;;;;;;2.97;1.90;;;;;;;19.92;57.36;100803.91;5076500;28;20044;-61
2022/08/10 02:26:14;;;;;;;3.53;2.53;;;;;;;19.89;57.56;100796.03;5076471;28;20571;-61
2022/08/10 02:29:06;;;;;;;5.55;3.03;;;;;;;19.88;57.64;100791.66;5076523;28;20520;-61
2022/08/10 02:31:51;;;;;;;3.38;2.30;;;;;;;19.85;57.62;100789.91;5075361;28;20101;-61
2022/08/10 02:34:39;;;;;;;6.13;2.88;;;;;;;19.83;57.64;100788.22;5076638;28;20449;-62
2022/08/10 02:37:26;;;;;;;3.25;2.50;;;;;;;19.82;57.67;100789.09;5075372;28;20105;-63
2022/08/10 02:40:12;;;;;;;3.03;2.00;;;;;;;19.81;57.59;100793.47;5075455;28;20139;-62
2022/08/10 02:43:43;;;;;;;7.40;2.53;;;;;;;19.79;57.31;100795.22;5075212;28;20063;-62
2022/08/10 02:47:07;;;;;;;3.63;2.22;;;;;;;19.75;57.45;100791.78;5071501;28;20238;-62
2022/08/10 02:50:06;;;;;;;4.10;2.50;;;;;;;19.74;57.63;100792.66;5065332;28;20063;-61
2022/08/10 02:53:04;;;;;;;5.05;2.42;;;;;;;19.74;57.75;100794.44;5075790;28;20398;-61
2022/08/10 02:55:58;;;;;;;5.05;2.67;;;;;;;19.72;57.52;100794.41;5075320;28;20132;-61
2022/08/10 02:59:08;;;;;;;4.78;2.65;;;;;;;19.72;57.72;100788.31;5075307;28;20052;-62
2022/08/10 03:02:02;;;;;;;6.57;3.15;;;;;;;19.69;57.63;100781.34;5075935;28;20149;-62
2022/08/10 03:04:52;;;;;;;5.28;2.70;;;;;;;19.70;57.77;100784.81;5075860;28;20048;-62
2022/08/10 03:07:58;;;;;;;4.03;2.35;;;;;;;19.68;57.74;100782.22;5075952;28;20132;-62
2022/08/10 03:10:46;;;;;;;5.53;3.08;;;;;;;19.68;57.60;100791.84;5075144;28;20047;-62
2022/08/10 03:13:35;;;;;;;4.97;3.00;;;;;;;19.66;58.03;100789.25;5075801;28;20051;-62
2022/08/10 03:16:25;;;;;;;5.43;3.05;;;;;;;19.67;57.74;100792.72;5075748;28;20106;-62
2022/08/10 03:19:19;;;;;;;4.13;2.80;;;;;;;19.66;57.63;100791.00;5075659;28;20051;-62
2022/08/10 03:22:04;;;;;;;5.57;2.72;;;;;;;19.65;57.89;100795.38;5075659;28;20078;-62
2022/08/10 03:24:55;;;;;;;5.88;3.13;;;;;;;19.63;57.82;100794.53;5074837;28;20052;-61
2022/08/10 03:27:43;;;;;;;5.05;3.10;;;;;;;19.65;57.66;100786.63;5075477;28;20543;-61
2022/08/10 03:30:33;;;;;;;6.18;2.60;;;;;;;19.66;57.73;100788.34;5074276;28;20047;-61
2022/08/10 03:33:20;;;;;;;5.47;3.00;;;;;;;19.66;57.87;100791.00;5074661;28;20118;-61
2022/08/10 03:36:08;;;;;;;5.65;3.20;;;;;;;19.64;57.78;100788.38;5075487;28;20048;-61
2022/08/10 03:38:55;;;;;;;3.92;3.08;;;;;;;19.66;57.82;100791.00;5074573;28;20169;-60
2022/08/10 03:41:46;;;;;;;7.05;2.70;;;;;;;19.66;57.79;100789.25;5074430;28;20059;-61
2022/08/10 03:44:34;;;;;;;4.53;2.97;;;;;;;19.67;57.80;100785.72;5074358;28;20052;-61
2022/08/10 03:47:21;;;;;;;5.45;2.88;;;;;;;19.68;58.02;100781.31;5074509;28;20471;-61
2022/08/10 03:50:08;;;;;;;5.25;3.00;;;;;;;19.69;58.13;100773.44;5074405;28;20047;-61
2022/08/10 03:52:57;;;;;;;5.20;2.70;;;;;;;19.70;58.16;100777.78;5075205;28;20050;-61
2022/08/10 03:55:45;;;;;;;3.90;2.65;;;;;;;19.71;57.88;100783.94;5075121;28;20396;-61
2022/08/10 03:58:31;;;;;;;6.53;3.05;;;;;;;19.73;57.98;100790.06;5075076;28;20051;-61
2022/08/10 04:01:22;;;;;;;5.97;2.95;;;;;;;19.73;58.11;100796.16;5073819;28;20059;-61
2022/08/10 04:04:07;;;;;;;4.25;2.78;;;;;;;19.73;58.26;100796.16;5073987;28;20514;-61
2022/08/10 04:07:02;;;;;;;4.45;2.90;;;;;;;19.74;58.07;100792.66;5074798;28;20051;-61
2022/08/10 04:09:48;;;;;;;3.50;2.78;;;;;;;19.74;58.10;100797.91;5074388;28;20506;-61
2022/08/10 04:12:35;;;;;;;3.75;2.80;;;;;;;19.75;58.32;100791.78;5074853;28;20067;-61
2022/08/10 04:15:23;;;;;;;2.92;2.67;;;;;;;19.76;58.43;100795.28;5074736;28;20110;-60
2022/08/10 04:18:13;;;;;;;5.22;2.97;;;;;;;19.75;58.22;100791.78;5074246;28;20052;-61
2022/08/10 04:21:08;;;;;;;4.35;3.42;;;;;;;19.77;58.19;100789.16;5074398;28;20048;-61
2022/08/10 04:23:58;;;;;;;3.72;2.65;;;;;;;19.75;58.23;100786.50;5073280;28;20506;-61
2022/08/10 04:26:42;;;;;;;6.68;3.30;;;;;;;19.76;58.40;100779.50;5073795;28;20044;-62
2022/08/10 04:29:29;;;;;;;5.13;3.47;;;;;;;19.76;58.32;100777.72;5073729;28;20051;-63
2022/08/10 04:32:21;;;;;;;9.27;3.03;;;;;;;19.76;58.16;100782.13;5073443;28;20090;-61
2022/08/10 04:35:09;;;;;;;4.68;3.00;;;;;;;19.76;58.06;100782.13;5073986;28;20564;-63
2022/08/10 04:37:55;;;;;;;8.80;3.38;;;;;;;19.76;58.39;100783.00;5074238;28;20109;-62
2022/08/10 04:40:45;;;;;;;5.85;2.92;;;;;;;19.75;58.30;100778.63;5073293;28;20510;-60
2022/08/10 04:43:29;;;;;;;5.55;3.10;;;;;;;19.76;58.32;100784.78;5072727;28;20544;-60
2022/08/10 04:46:18;;;;;;;5.47;2.95;;;;;;;19.77;58.28;100784.75;5073883;28;20071;-61
2022/08/10 04:49:05;;;;;;;6.78;3.33;;;;;;;19.77;58.29;100782.09;5073851;28;20044;-61
2022/08/10 04:51:51;;;;;;;4.03;3.08;;;;;;;19.77;58.28;100783.88;5073679;28;20055;-61
2022/08/10 04:54:41;;;;;;;4.32;2.80;;;;;;;19.78;58.27;100783.84;5073608;28;20392;-62
2022/08/10 04:57:28;;;;;;;5.53;3.38;;;;;;;19.76;58.19;100783.00;5073044;28;20576;-63
2022/08/10 05:00:15;;;;;;;4.63;2.75;;;;;;;19.75;58.27;100781.25;5073268;28;20051;-62
2022/08/10 05:03:04;;;;;;;4.97;2.90;;;;;;;19.75;58.35;100789.13;5073386;28;20055;-62
2022/08/10 05:05:51;;;;;;;6.13;3.33;;;;;;;19.75;58.22;100794.41;5072660;28;20419;-62
2022/08/10 05:08:38;;;;;;;5.30;3.22;;;;;;;19.73;58.25;100796.16;5072409;28;20048;-62
2022/08/10 05:11:25;;;;;;;4.00;2.75;;;;;;;19.72;58.35;100794.41;5073887;28;20121;-63
2022/08/10 05:14:13;;;;;;;4.03;3.03;;;;;;;19.71;58.23;100792.69;5072534;28;20043;-60
2022/08/10 05:17:01;;;;;;;4.55;3.30;;;;;;;19.72;58.37;100799.69;5073458;28;20522;-61
2022/08/10 05:19:44;;;;;;;5.43;2.40;;;;;;;19.72;58.56;100796.19;5072936;28;20405;-61
2022/08/10 05:22:36;;;;;;;3.80;2.88;;;;;;;19.70;58.53;100793.56;5073397;28;20446;-63
2022/08/10 05:25:22;;;;;;;5.60;2.65;;;;;;;19.70;58.64;100795.34;5072827;28;20419;-62
2022/08/10 05:28:05;;;;;;;5.07;2.95;;;;;;;19.71;58.67;100794.44;5072836;28;20048;-61
2022/08/10 05:30:49;;;;;;;4.55;3.00;;;;;;;19.69;58.52;100807.63;5073702;28;20047;-64
2022/08/10 05:33:36;;;;;;;4.18;2.80;;;;;;;19.68;58.69;100808.50;5073498;28;20102;-62
2022/08/10 05:36:20;;;;;;;4.07;3.15;;;;;;;19.69;58.85;100810.25;5073658;28;20051;-62
2022/08/10 05:39:09;;;;;;;5.30;3.22;;;;;;;19.70;58.74;100806.72;5073530;28;20048;-62
2022/08/10 05:41:56;;;;;;;7.20;3.08;;;;;;;19.70;58.87;100803.22;5072586;28;20114;-62
2022/08/10 05:44:41;;;;;;;5.72;2.92;;;;;;;19.68;58.75;100808.50;5073314;28;20067;-62
2022/08/10 05:47:34;;;;;;;6.25;3.53;;;;;;;19.66;58.70;100805.03;5072602;28;20087;-63
2022/08/10 05:50:30;;;;;;;5.43;3.08;;;;;;;19.65;58.71;100805.00;5072506;28;20044;-61
2022/08/10 05:53:15;;;;;;;6.72;2.90;;;;;;;19.64;58.89;100806.78;5073359;28;20449;-62
2022/08/10 05:56:00;;;;;;;4.05;3.17;;;;;;;19.62;58.81;100804.16;5073147;28;20101;-63
2022/08/10 05:58:44;;;;;;;4.95;3.17;;;;;;;19.61;58.81;100802.44;5072423;28;20074;-62
2022/08/10 06:01:30;;;;;;;5.68;3.55;;;;;;;19.60;58.69;100808.59;5073176;28;20428;-63
2022/08/10 06:04:28;;;;;;;6.60;3.40;;;;;;;19.59;58.75;100809.47;5072178;28;20127;-61
2022/08/10 06:07:15;;;;;;;3.58;2.95;;;;;;;19.59;58.68;100809.47;5072373;28;20454;-60
2022/08/10 06:10:01;;;;;;;3.90;2.92;;;;;;;19.60;58.83;100810.31;5072110;28;20048;-61
2022/08/10 06:14:59;;;;;;;6.28;3.10;;;;;;;19.59;58.71;100804.22;5072295;28;20059;-61
2022/08/10 06:15:52;;;;;;;7.93;2.72;;;;;;;19.60;58.83;100812.94;5073139;28;20044;-60
2022/08/10 06:18:37;;;;;;;5.00;3.22;;;;;;;19.59;58.56;100813.84;5073006;28;20051;-61
2022/08/10 06:21:25;;;;;;;5.60;3.67;;;;;;;19.61;58.83;100810.34;5072408;28;20523;-61
2022/08/10 06:24:11;;;;;;;5.55;3.70;;;;;;;19.62;58.78;100819.94;5071958;28;20411;-61
2022/08/10 06:26:58;;;;;;;4.68;3.28;;;;;;;19.60;58.73;100824.34;5074556;28;20047;-60
2022/08/10 06:29:44;;;;;;;7.22;3.75;;;;;;;19.61;58.94;100825.22;5076809;28;20086;-60
2022/08/10 06:32:31;;;;;;;6.95;3.70;;;;;;;19.61;58.62;100827.84;5075736;28;20055;-62
2022/08/10 06:35:17;;;;;;;4.63;3.53;;;;;;;19.62;58.57;100824.34;5075713;28;20079;-61
2022/08/10 06:38:03;;;;;;;11.00;4.25;;;;;;;19.62;58.63;100817.31;5075396;28;20549;-61
2022/08/10 06:40:47;;;;;;;4.55;3.40;;;;;;;19.62;58.72;100814.66;5075756;28;20506;-63
2022/08/10 06:43:40;;;;;;;4.78;3.97;;;;;;;19.63;58.85;100824.31;5076418;28;20090;-61
2022/08/10 06:46:25;;;;;;;8.45;4.25;;;;;;;19.64;58.59;100817.31;5076052;28;20102;-61
2022/08/10 06:49:11;;;;;;;5.68;3.65;;;;;;;19.65;58.71;100821.69;5075327;28;20047;-63
2022/08/10 06:51:59;;;;;;;4.93;3.90;;;;;;;19.66;58.62;100820.78;5075479;28;20106;-61
2022/08/10 06:54:50;;;;;;;6.88;3.55;;;;;;;19.67;58.49;100817.28;5076308;28;20074;-61
2022/08/10 06:57:37;;;;;;;8.93;3.55;;;;;;;19.68;58.81;100821.66;5075286;28;20056;-61
2022/08/10 07:00:25;;;;;;;6.38;3.45;;;;;;;19.69;58.65;100818.16;5075102;28;20059;-61
2022/08/10 07:03:13;;;;;;;8.20;4.07;;;;;;;19.70;58.85;100819.84;5074507;28;20094;-62
2022/08/10 07:05:59;;;;;;;8.27;3.72;;;;;;;19.71;58.70;100826.88;5074993;28;20067;-61
2022/08/10 07:08:44;;;;;;;7.32;3.58;;;;;;;19.72;58.63;100823.34;5075149;28;20498;-61
2022/08/10 07:11:32;;;;;;;11.60;4.70;;;;;;;19.72;58.47;100828.59;5076026;28;20450;-63
2022/08/10 07:14:17;;;;;;;9.60;4.50;;;;;;;19.72;58.69;100823.34;5075738;28;20070;-63
2022/08/10 07:17:03;;;;;;;5.68;3.88;;;;;;;19.74;58.61;100823.34;5075008;28;20044;-62
2022/08/10 07:19:57;;;;;;;7.13;3.38;;;;;;;19.75;58.67;100828.59;5074880;28;20098;-62
2022/08/10 07:22:42;;;;;;;7.70;3.40;;;;;;;19.76;58.65;100827.69;5074837;28;20559;-62
2022/08/10 07:25:28;;;;;;;7.57;3.70;;;;;;;19.78;58.52;100827.69;5075660;28;20538;-61
2022/08/10 07:28:12;;;;;;;6.40;3.42;;;;;;;19.78;58.72;100825.94;5074984;28;20078;-63
2022/08/10 07:30:56;;;;;;;6.35;3.53;;;;;;;19.81;58.58;100834.69;5075320;28;20132;-61
2022/08/10 07:33:42;;;;;;;8.00;4.28;;;;;;;19.82;58.43;100833.78;5075328;28;20097;-61
2022/08/10 07:36:28;;;;;;;9.95;3.75;;;;;;;19.85;58.75;100839.88;5074348;28;20052;-62
2022/08/10 07:39:13;;;;;;;8.98;3.50;;;;;;;19.86;58.66;100836.38;5074499;28;20086;-62
2022/08/10 07:42:06;;;;;;;5.70;3.58;;;;;;;19.86;58.65;100840.75;5074003;28;20404;-63
2022/08/10 07:44:51;;;;;;;9.50;3.53;;;;;;;19.87;58.60;100842.53;5075136;28;20118;-63
2022/08/10 07:47:54;;;;;;;7.03;3.90;;;;;;;19.89;58.40;100838.13;5074933;28;20043;-62
2022/08/10 07:50:39;;;;;;;7.32;4.00;;;;;;;19.90;58.55;100840.75;5075058;28;20079;-63
2022/08/10 07:53:32;;;;;;;5.57;3.40;;;;;;;19.92;58.45;100846.00;5074310;28;20077;-62
2022/08/10 07:56:23;;;;;;;8.38;3.97;;;;;;;19.94;58.33;100844.22;5075201;28;20052;-63
2022/08/10 07:59:15;;;;;;;7.95;3.72;;;;;;;19.93;58.35;100843.34;5075084;28;20129;-62
2022/08/10 08:02:00;;;;;;;6.82;3.75;;;;;;;19.97;58.25;100851.19;5074698;28;20056;-62
2022/08/10 08:04:45;;;;;;;5.68;3.50;;;;;;;19.96;58.27;100850.34;5073634;28;20095;-62
2022/08/10 08:07:33;;;;;;;7.80;3.83;;;;;;;19.97;58.44;100849.47;5074045;28;20509;-62
2022/08/10 08:10:21;;;;;;;9.18;4.00;;;;;;;20.00;58.49;100852.06;5074702;28;20101;-63
2022/08/10 08:13:11;;;;;;;8.85;3.85;;;;;;;20.01;58.43;100859.03;5074924;28;20066;-62
2022/08/10 08:16:03;;;;;;;10.27;4.68;;;;;;;20.01;58.18;100848.53;5073595;28;20090;-63
2022/08/10 08:18:48;;;;;;;7.78;3.55;;;;;;;20.03;58.15;100853.78;5073774;28;20117;-62
2022/08/10 08:21:34;;;;;;;7.90;3.60;;;;;;;20.03;58.32;100849.38;5073719;28;20132;-62
2022/08/10 08:24:21;;;;;;;6.90;3.78;;;;;;;20.05;58.09;100849.38;5073610;28;20102;-62
2022/08/10 08:27:05;;;;;;;6.82;3.75;;;;;;;20.05;58.04;100844.13;5073632;28;20044;-63
2022/08/10 08:29:51;;;;;;;9.65;3.97;;;;;;;20.05;58.07;100844.97;5074431;28;20150;-62
2022/08/10 08:32:41;;;;;;;7.43;3.78;;;;;;;20.06;58.20;100844.09;5073551;28;20054;-63
2022/08/10 08:35:31;;;;;;;5.43;3.35;;;;;;;20.06;58.06;100844.09;5074448;28;20434;-63
2022/08/10 08:38:16;;;;;;;8.90;3.78;;;;;;;20.07;58.26;100843.19;5074379;28;20051;-63
2022/08/10 08:41:29;;;;;;;4.78;3.30;;;;;;;20.09;58.07;100837.91;5073156;28;20146;-63
2022/08/10 08:44:42;;;;;;;7.88;4.45;;;;;;;20.11;58.04;100838.78;5060351;28;20514;-62
2022/08/10 08:47:48;;;;;;;6.47;3.10;;;;;;;20.12;57.89;100847.56;5054134;28;20464;-60
2022/08/10 08:50:42;;;;;;;9.30;3.80;;;;;;;20.14;58.08;100843.16;5073555;28;20079;-61
2022/08/10 08:53:53;;;;;;;7.50;4.35;;;;;;;20.15;57.93;100831.75;5073779;28;20047;-61
2022/08/10 08:57:03;;;;;;;9.32;3.50;;;;;;;20.16;58.01;100833.47;5073519;28;20047;-62
2022/08/10 08:59:52;;;;;;;4.70;3.33;;;;;;;20.15;57.77;100837.00;5074058;28;20502;-61
2022/08/10 09:03:03;;;;;;;11.35;3.40;;;;;;;20.17;57.72;100841.34;5073598;28;20079;-61
2022/08/10 09:06:31;;;;;;;6.63;3.75;;;;;;;20.18;57.81;100824.66;5073819;28;20075;-61
2022/08/10 09:09:34;;;;;;;5.32;3.17;;;;;;;20.18;57.77;100829.94;5031750;28;20123;-61
2022/08/10 09:12:36;;;;;;;7.20;3.22;;;;;;;20.20;57.96;100825.53;5017933;28;20071;-61
2022/08/10 09:15:34;;;;;;;6.30;3.72;;;;;;;20.22;57.67;100814.97;5073411;28;20102;-62
2022/08/10 09:18:44;;;;;;;9.88;3.45;;;;;;;20.23;57.64;100816.72;5072738;28;20066;-62
2022/08/10 09:22:01;;;;;;;7.10;3.95;;;;;;;20.26;57.79;100818.44;5073602;28;20056;-63
2022/08/10 09:24:58;;;;;;;6.80;3.30;;;;;;;20.26;57.73;100808.78;5073381;28;20039;-62
2022/08/10 09:27:47;;;;;;;8.98;3.08;;;;;;;20.28;57.79;100812.28;5073283;28;20087;-62
2022/08/10 09:30:48;;;;;;;8.90;3.85;;;;;;;20.29;57.62;100814.03;5072865;28;20131;-63
2022/08/10 09:33:57;;;;;;;6.00;2.80;;;;;;;20.31;57.77;100812.25;5072649;28;20511;-62
2022/08/10 09:36:53;;;;;;;6.00;3.45;;;;;;;20.34;57.50;100814.81;5072664;28;20560;-62
2022/08/10 09:39:57;;;;;;;7.10;3.03;;;;;;;20.38;57.70;100810.41;5072586;28;20048;-62
2022/08/10 09:42:52;;;;;;;7.18;3.10;;;;;;;20.39;57.59;100802.47;5073231;28;20051;-62
2022/08/10 09:45:45;;;;;;;;;;;;;;;20.40;57.29;100805.97;5073007;28;20042;-62
2022/08/10 09:48:37;;;;;;;4.97;3.08;;;;;;;20.42;57.32;100805.97;5073582;28;19966;-63
2022/08/10 09:51:42;;;;;;;4.55;3.22;;;;;;;20.44;57.10;100801.56;5072449;28;20047;-63
2022/08/10 09:54:59;;;;;;;10.38;3.13;;;;;;;20.46;57.18;100797.16;5073389;28;20107;-63
2022/08/10 09:58:11;;;;;;;9.35;3.42;;;;;;;20.46;57.15;100789.25;5072267;28;20457;-63
2022/08/10 10:01:26;;;;;;;5.63;3.45;;;;;;;20.48;57.00;100788.34;5075253;28;20544;-63
2022/08/10 10:04:31;;;;;;;4.82;3.22;;;;;;;20.49;56.89;100782.19;5077020;28;20046;-62
2022/08/10 10:07:24;;;;;;;7.57;3.40;;;;;;;20.54;56.64;100780.38;5076841;28;20051;-62
2022/08/10 10:10:28;;;;;;;4.97;2.70;;;;;;;20.56;56.57;100772.44;5076251;28;20052;-62
2022/08/10 10:13:26;;;;;;;6.60;3.38;;;;;;;20.57;56.49;100762.75;5075917;28;20096;-62
2022/08/10 10:16:26;;;;;;;7.40;2.72;;;;;;;20.58;56.53;100765.38;5076016;28;20144;-62
2022/08/10 10:19:30;;;;;;;7.05;3.35;;;;;;;20.60;56.30;100760.09;5076007;28;20075;-63
2022/08/10 10:22:40;;;;;;;5.25;3.10;;;;;;;20.62;56.03;100763.56;5076836;28;20059;-62
2022/08/10 10:25:42;;;;;;;4.28;2.80;;;;;;;20.63;55.98;100757.41;5075983;28;20055;-61
2022/08/10 10:28:27;;;;;;;7.60;3.03;;;;;;;20.64;55.54;100749.47;5075687;28;20399;-61
2022/08/10 10:31:29;;;;;;;8.77;3.05;;;;;;;20.63;55.84;100754.78;5076490;28;20052;-61
2022/08/10 10:34:17;;;;;;;7.43;2.90;;;;;;;20.64;55.65;100746.84;5075716;28;20047;-62
2022/08/10 10:37:01;;;;;;;5.03;3.13;;;;;;;20.66;55.29;100750.31;5075581;28;20135;-61
2022/08/10 10:39:52;;;;;;;5.65;3.08;;;;;;;20.69;55.36;100737.13;5075600;28;20170;-61
2022/08/10 10:43:03;;;;;;;6.30;3.42;;;;;;;20.69;55.51;100731.84;5075509;28;20051;-61
2022/08/10 10:46:10;;;;;;;7.63;3.40;;;;;;;20.71;55.52;100739.72;5076198;28;20070;-61
2022/08/10 10:49:01;;;;;;;5.32;2.80;;;;;;;20.72;55.24;100736.19;5075242;28;20465;-63
2022/08/10 10:52:01;;;;;;;7.88;3.25;;;;;;;20.74;55.15;100729.16;5076349;28;20051;-62
2022/08/10 10:55:05;;;;;;;5.22;3.00;;;;;;;20.74;55.08;100731.78;5075378;28;20067;-62
2022/08/10 10:58:14;;;;;;;7.50;3.30;;;;;;;20.73;55.15;100727.41;5075226;28;20094;-63
2022/08/10 11:01:09;;;;;;;7.13;3.25;;;;;;;20.73;54.85;100722.13;5076244;28;20468;-61
2022/08/10 11:04:12;;;;;;;4.55;2.88;;;;;;;20.74;55.00;100720.38;5074877;28;20129;-63
2022/08/10 11:07:09;;;;;;;7.78;3.30;;;;;;;20.75;54.75;100714.22;5075077;28;20102;-61
2022/08/10 11:09:57;;;;;;;3.83;2.75;;;;;;;20.77;54.50;100709.84;5076390;28;20075;-63
2022/08/10 11:12:49;;;;;;;7.90;2.53;;;;;;;20.79;54.41;100705.41;5074515;28;20135;-61
2022/08/10 11:15:42;;;;;;;7.85;3.10;;;;;;;20.80;54.31;100715.03;5074890;28;20051;-63
2022/08/10 11:18:40;;;;;;;12.52;2.95;;;;;;;20.81;54.11;100699.22;5075319;28;20043;-61
2022/08/10 11:21:36;;;;;;;5.38;2.70;;;;;;;20.84;53.85;100693.03;5075912;28;20055;-61
2022/08/10 11:24:31;;;;;;;5.68;2.97;;;;;;;20.86;53.75;100688.63;5074526;28;20039;-61
2022/08/10 11:27:37;;;;;;;8.85;2.63;;;;;;;20.86;53.86;100685.97;5075253;28;20048;-61
2022/08/10 11:30:35;;;;;;;4.00;2.65;;;;;;;20.87;53.77;100687.72;5074559;28;20051;-61
2022/08/10 11:34:01;;;;;;;5.10;3.63;;;;;;;20.89;53.99;100678.03;5074528;28;20550;-60
2022/08/10 11:37:04;;;;;;;5.53;3.08;;;;;;;20.91;53.61;100684.16;5033752;28;20067;-61
2022/08/10 11:40:08;;;;;;;5.18;2.63;;;;;;;20.90;53.48;100674.50;5074608;28;20051;-63
2022/08/10 11:43:25;;;;;;;4.87;3.10;;;;;;;20.89;53.81;100680.66;5075405;28;20039;-61
2022/08/10 11:46:49;;;;;;;6.93;2.75;;;;;;;20.92;53.65;100685.00;5075289;28;20062;-62
2022/08/10 11:49:42;;;;;;;4.10;2.35;;;;;;;20.88;53.30;100678.94;5051562;28;20055;-61
2022/08/10 11:52:35;;;;;;;3.30;2.33;;;;;;;20.90;53.40;100674.50;5073706;28;20461;-61
2022/08/10 11:55:27;;;;;;;7.05;3.10;;;;;;;20.93;53.02;100682.38;5075217;28;20066;-61
2022/08/10 12:01:19;;;;;;;;;;;;;;;20.92;53.46;100667.44;5075616;28;20118;-61
2022/08/10 12:04:06;;;;;;;12.30;2.72;;;;;;;20.92;52.93;100666.56;5073835;28;19962;-61
2022/08/10 12:06:53;;;;;;;5.50;3.03;;;;;;;20.96;52.81;100663.00;5074871;28;20109;-61
2022/08/10 12:09:38;;;;;;;4.05;2.38;;;;;;;20.97;52.57;100657.69;5074000;28;20105;-61
2022/08/10 12:12:29;;;;;;;5.97;2.65;;;;;;;21.00;52.75;100654.16;5073805;28;20048;-62
2022/08/10 12:15:24;;;;;;;6.15;2.85;;;;;;;21.05;52.68;100657.53;5073705;28;20507;-62
2022/08/10 12:18:17;;;;;;;7.43;2.55;;;;;;;21.06;52.59;100653.16;5074372;28;20043;-62
2022/08/10 12:21:10;;;;;;;3.13;2.30;;;;;;;21.05;52.23;100649.63;5074516;28;20051;-61
2022/08/10 12:24:29;;;;;;;6.82;2.83;;;;;;;21.04;52.70;100655.81;5072718;28;20193;-62
2022/08/10 12:27:28;;;;;;;3.03;2.65;;;;;;;21.03;52.79;100655.84;5074570;28;20051;-61
2022/08/10 12:30:14;;;;;;;9.98;3.05;;;;;;;21.06;52.30;100645.25;5073446;28;20051;-61
2022/08/10 12:33:23;;;;;;;4.05;2.63;;;;;;;21.10;52.60;100650.44;5073512;28;20082;-61
2022/08/10 12:36:18;;;;;;;5.85;2.53;;;;;;;21.12;52.24;100640.75;5073816;28;20043;-61
2022/08/10 12:39:31;;;;;;;2.78;2.22;;;;;;;21.16;52.15;100640.69;5073338;28;20068;-62
2022/08/10 12:42:21;;;;;;;4.55;2.78;;;;;;;21.18;51.92;100641.53;5073131;28;20127;-62
2022/08/10 12:45:15;;;;;;;4.95;2.83;;;;;;;21.16;51.92;100635.41;5073188;28;20079;-63
2022/08/10 12:48:11;;;;;;;6.70;2.95;;;;;;;21.14;51.74;100627.53;5073201;28;20051;-63
2022/08/10 12:51:00;;;;;;;4.90;2.38;;;;;;;21.18;51.63;100636.25;5074061;28;20055;-62
2022/08/10 12:54:06;;;;;;;5.80;2.72;;;;;;;21.19;51.64;100624.78;5073207;28;20126;-63
2022/08/10 12:56:59;;;;;;;7.88;2.95;;;;;;;21.23;51.65;100624.72;5073396;28;20412;-63
2022/08/10 12:59:51;;;;;;;5.72;3.65;;;;;;;21.25;51.35;100620.31;5073857;28;20132;-63
2022/08/10 13:02:41;;;;;;;3.83;2.58;;;;;;;21.27;51.33;100620.25;5073333;28;20114;-62
2022/08/10 13:05:27;;;;;;;8.95;2.83;;;;;;;21.26;51.23;100626.44;5073565;28;20043;-62
2022/08/10 13:11:24;;;;;;;6.30;3.10;;;;;;;21.29;51.08;100629.88;5073931;28;20186;-63
2022/08/10 13:14:14;;;;;;;6.40;2.50;;;;;;;21.29;51.07;100616.69;5073060;28;20094;-63
2022/08/10 13:17:00;;;;;;;4.43;2.90;;;;;;;21.30;50.91;100615.78;5073839;28;20561;-62
2022/08/10 13:19:46;;;;;;;6.55;2.63;;;;;;;21.35;50.83;100617.47;5072819;28;20132;-62
2022/08/10 13:22:37;;;;;;;9.00;2.67;;;;;;;21.35;50.92;100607.78;5072792;28;20039;-62
2022/08/10 13:25:30;;;;;;;7.80;2.95;;;;;;;21.33;51.04;100608.72;5072751;28;20054;-61
2022/08/10 13:28:19;;;;;;;4.68;3.30;;;;;;;21.37;50.46;100611.25;5072331;28;20056;-61